createdAt,value
2023-03-20T00:01:24.529Z,5.90
2023-03-20T00:03:51.602Z,5.80
2023-03-20T00:06:23.077Z,5.80
2023-03-20T00:08:52.536Z,5.80
2023-03-20T00:11:28.911Z,5.70
2023-03-20T00:14:07.498Z,5.60
2023-03-20T00:16:36.527Z,5.60
2023-03-20T00:19:04.412Z,5.60
2023-03-20T00:21:31.593Z,5.50
2023-03-20T00:23:58.952Z,5.50
2023-03-20T00:26:28.809Z,5.50
2023-03-20T00:28:56.623Z,5.40
2023-03-20T00:31:31.007Z,5.30
2023-03-20T00:34:03.714Z,5.30
2023-03-20T00:36:30.712Z,5.30
2023-03-20T00:39:00.352Z,5.30
2023-03-20T00:41:29.717Z,5.30
2023-03-20T00:44:22.531Z,5.40
2023-03-20T00:47:00.589Z,5.40
2023-03-20T00:49:35.500Z,5.30
2023-03-20T00:52:04.182Z,5.30
2023-03-20T00:54:31.762Z,5.30
2023-03-20T00:57:01.249Z,5.30
2023-03-20T00:59:31.476Z,5.30
2023-03-20T01:01:59.695Z,5.30
2023-03-20T01:04:30.818Z,5.30
2023-03-20T01:06:57.592Z,5.20
2023-03-20T01:09:24.358Z,5.20
2023-03-20T01:11:53.017Z,5.20
2023-03-20T01:14:20.816Z,5.20
2023-03-20T01:16:47.663Z,5.20
2023-03-20T01:19:15.447Z,5.20
2023-03-20T01:21:42.693Z,5.20
2023-03-20T01:24:09.668Z,5.20
2023-03-20T01:26:38.502Z,5.20
2023-03-20T01:29:32.389Z,5.20
2023-03-20T01:31:59.192Z,5.20
2023-03-20T01:34:25.980Z,5.20
2023-03-20T01:36:57.597Z,5.20
2023-03-20T01:39:33.100Z,5.10
2023-03-20T01:42:03.085Z,5.10
2023-03-20T01:44:32.097Z,5.10
2023-03-20T01:47:00.243Z,5.10
2023-03-20T01:49:28.327Z,5.10
2023-03-20T01:51:56.491Z,5.10
2023-03-20T01:54:37.905Z,5.10
2023-03-20T01:57:12.329Z,5.10
2023-03-20T01:59:47.457Z,5.10
2023-03-20T02:02:16.225Z,5.10
2023-03-20T02:04:46.128Z,5.00
2023-03-20T02:07:15.895Z,5.10
2023-03-20T02:09:42.750Z,5.00
2023-03-20T02:12:10.424Z,5.10
2023-03-20T02:14:37.753Z,5.10
2023-03-20T02:17:07.192Z,5.00
2023-03-20T02:19:53.241Z,5.00
2023-03-20T02:22:42.068Z,5.00
2023-03-20T02:25:33.945Z,5.00
2023-03-20T02:28:10.329Z,4.90
2023-03-20T02:30:48.671Z,5.00
2023-03-20T02:33:21.544Z,4.90
2023-03-20T02:36:07.205Z,4.90
2023-03-20T02:38:59.976Z,4.90
2023-03-20T02:41:51.765Z,4.90
2023-03-20T02:44:33.747Z,4.90
2023-03-20T02:47:11.300Z,4.90
2023-03-20T02:50:11.812Z,4.90
2023-03-20T02:52:44.590Z,4.90
2023-03-20T02:55:40.497Z,4.80
2023-03-20T02:58:22.968Z,4.80
2023-03-20T03:01:03.906Z,4.80
2023-03-20T03:03:34.291Z,4.80
2023-03-20T03:06:12.108Z,4.80
2023-03-20T03:08:42.730Z,4.80
2023-03-20T03:11:10.169Z,4.80
2023-03-20T03:13:46.262Z,4.80
2023-03-20T03:16:17.944Z,4.80
2023-03-20T03:18:46.567Z,4.80
2023-03-20T03:21:16.704Z,4.80
2023-03-20T03:23:47.754Z,4.80
2023-03-20T03:26:41.118Z,4.80
2023-03-20T03:29:14.098Z,4.80
2023-03-20T03:31:41.429Z,4.80
2023-03-20T03:34:12.791Z,4.80
2023-03-20T03:37:06.345Z,4.80
2023-03-20T03:39:48.270Z,4.80
2023-03-20T03:42:31.494Z,4.80
2023-03-20T03:45:15.011Z,4.80
2023-03-20T03:47:46.222Z,4.80
2023-03-20T03:50:17.479Z,4.80
2023-03-20T03:52:45.098Z,4.80
2023-03-20T03:55:16.205Z,4.80
2023-03-20T03:57:49.682Z,4.80
2023-03-20T04:00:20.710Z,4.80
2023-03-20T04:02:51.082Z,4.80
2023-03-20T04:05:19.515Z,4.80
2023-03-20T04:07:47.700Z,4.80
2023-03-20T04:10:14.999Z,4.80
2023-03-20T04:12:43.697Z,4.80
2023-03-20T04:15:12.102Z,4.80
2023-03-20T04:17:38.961Z,4.80
2023-03-20T04:20:07.650Z,4.80
2023-03-20T04:22:35.092Z,4.80
2023-03-20T04:25:06.848Z,4.80
2023-03-20T04:27:33.684Z,4.80
2023-03-20T04:30:00.748Z,4.80
2023-03-20T04:32:27.621Z,4.90
2023-03-20T04:34:54.460Z,4.90
2023-03-20T04:37:21.241Z,4.80
2023-03-20T04:39:48.039Z,4.90
2023-03-20T04:42:14.889Z,4.90
2023-03-20T04:44:41.674Z,4.80
2023-03-20T04:47:08.521Z,4.90
2023-03-20T04:49:35.377Z,4.90
2023-03-20T04:52:02.518Z,4.90
2023-03-20T04:54:29.394Z,4.90
2023-03-20T04:56:56.110Z,4.90
2023-03-20T04:59:23.040Z,4.90
2023-03-20T05:01:49.821Z,4.90
2023-03-20T05:04:16.593Z,4.90
2023-03-20T05:06:44.070Z,4.90
2023-03-20T05:09:10.940Z,4.90
2023-03-20T05:11:37.717Z,4.90
2023-03-20T05:14:05.177Z,4.90
2023-03-20T05:16:32.206Z,4.90
2023-03-20T05:18:59.031Z,5.00
2023-03-20T05:21:25.782Z,5.00
2023-03-20T05:23:52.616Z,5.00
2023-03-20T05:26:19.535Z,5.00
2023-03-20T05:28:46.548Z,5.00
2023-03-20T05:31:13.421Z,5.00
2023-03-20T05:33:40.427Z,5.00
2023-03-20T05:36:07.752Z,5.00
2023-03-20T05:38:34.539Z,5.00
2023-03-20T05:41:01.880Z,5.00
2023-03-20T05:43:29.250Z,5.10
2023-03-20T05:45:56.909Z,5.00
2023-03-20T05:48:24.072Z,5.00
2023-03-20T05:50:50.952Z,5.10
2023-03-20T05:53:17.886Z,5.10
2023-03-20T05:55:44.821Z,5.10
2023-03-20T05:58:12.160Z,5.20
2023-03-20T06:00:39.683Z,5.20
2023-03-20T06:03:09.450Z,5.20
2023-03-20T06:05:36.810Z,5.20
2023-03-20T06:08:04.413Z,5.20
2023-03-20T06:10:31.419Z,5.20
2023-03-20T06:13:00.949Z,5.20
2023-03-20T06:15:28.588Z,5.20
2023-03-20T06:17:56.376Z,5.20
2023-03-20T06:20:23.626Z,5.20
2023-03-20T06:22:50.601Z,5.30
2023-03-20T06:25:18.230Z,5.30
2023-03-20T06:27:46.630Z,5.30
2023-03-20T06:30:14.828Z,5.40
2023-03-20T06:32:41.696Z,5.30
2023-03-20T06:35:09.312Z,5.30
2023-03-20T06:37:36.582Z,5.30
2023-03-20T06:40:04.700Z,5.30
2023-03-20T06:42:31.624Z,5.40
2023-03-20T06:44:58.570Z,5.40
2023-03-20T06:47:25.378Z,5.40
2023-03-20T06:49:52.136Z,5.40
2023-03-20T06:52:21.585Z,5.40
2023-03-20T06:54:48.460Z,5.50
2023-03-20T06:57:18.315Z,5.50
2023-03-20T06:59:45.187Z,5.50
2023-03-20T07:02:12.237Z,5.60
2023-03-20T07:04:39.919Z,5.50
2023-03-20T07:07:06.792Z,5.60
2023-03-20T07:09:33.680Z,5.60
2023-03-20T07:12:01.003Z,5.60
2023-03-20T07:14:27.863Z,5.60
2023-03-20T07:16:56.372Z,5.70
2023-03-20T07:19:23.633Z,5.70
2023-03-20T07:21:53.230Z,5.70
2023-03-20T07:24:20.043Z,5.70
2023-03-20T07:26:47.121Z,5.70
2023-03-20T07:29:14.103Z,5.80
2023-03-20T07:31:41.100Z,5.80
2023-03-20T07:34:08.109Z,5.80
2023-03-20T07:36:34.958Z,5.80
2023-03-20T07:39:01.858Z,5.80
2023-03-20T07:41:28.613Z,5.80
2023-03-20T07:43:55.590Z,5.90
2023-03-20T07:46:22.562Z,5.90
2023-03-20T07:48:49.402Z,5.90
2023-03-20T07:51:16.217Z,5.90
2023-03-20T07:53:43.042Z,5.90
2023-03-20T07:56:10.254Z,5.90
2023-03-20T07:58:37.101Z,6.00
2023-03-20T08:01:04.107Z,6.00
2023-03-20T08:03:31.811Z,6.10
2023-03-20T08:05:58.739Z,6.10
2023-03-20T08:08:25.767Z,6.10
2023-03-20T08:10:52.580Z,6.10
2023-03-20T08:13:19.515Z,6.10
2023-03-20T08:15:47.237Z,6.20
2023-03-20T08:18:14.076Z,6.20
2023-03-20T08:20:40.869Z,6.20
2023-03-20T08:23:07.984Z,6.20
2023-03-20T08:25:35.291Z,6.30
2023-03-20T08:28:02.296Z,6.30
2023-03-20T08:30:29.711Z,6.30
2023-03-20T08:32:58.391Z,6.40
2023-03-20T08:35:32.913Z,6.40
2023-03-20T08:38:00.643Z,6.40
2023-03-20T08:40:27.670Z,6.40
2023-03-20T08:42:54.560Z,6.50
2023-03-20T08:45:21.788Z,6.50
2023-03-20T08:47:48.957Z,6.50
2023-03-20T08:50:16.219Z,6.60
2023-03-20T08:52:44.315Z,6.50
2023-03-20T08:55:12.077Z,6.60
2023-03-20T08:57:38.988Z,6.60
2023-03-20T09:00:07.457Z,6.60
2023-03-20T09:02:34.531Z,6.70
2023-03-20T09:05:01.807Z,6.80
2023-03-20T09:07:28.713Z,6.90
2023-03-20T09:09:55.724Z,6.90
2023-03-20T09:12:22.653Z,6.90
2023-03-20T09:14:49.427Z,7.00
2023-03-20T09:17:16.283Z,7.00
2023-03-20T09:19:44.822Z,7.10
2023-03-20T09:22:18.021Z,7.20
2023-03-20T09:24:45.655Z,7.20
2023-03-20T09:27:16.296Z,7.30
2023-03-20T09:29:43.506Z,7.30
2023-03-20T09:32:14.762Z,7.40
2023-03-20T09:34:41.879Z,7.50
2023-03-20T09:37:08.700Z,7.50
2023-03-20T09:39:35.580Z,7.50
2023-03-20T09:42:30.657Z,7.60
2023-03-20T09:45:16.377Z,7.60
2023-03-20T09:48:00.981Z,7.70
2023-03-20T09:50:34.590Z,7.70
2023-03-20T09:53:13.822Z,7.80
2023-03-20T09:55:42.849Z,7.90
2023-03-20T09:58:18.824Z,7.90
2023-03-20T10:00:46.802Z,7.90
2023-03-20T10:03:28.565Z,8.00
2023-03-20T10:06:04.798Z,8.00
2023-03-20T10:08:37.494Z,8.10
2023-03-20T10:11:10.570Z,8.10
2023-03-20T10:13:37.312Z,8.10
2023-03-20T10:16:14.283Z,8.10
2023-03-20T10:18:47.120Z,8.10
2023-03-20T10:21:19.086Z,8.10
2023-03-20T10:24:04.730Z,8.20
2023-03-20T10:26:34.532Z,8.20
2023-03-20T10:29:03.658Z,8.20
2023-03-20T10:31:48.030Z,8.30
2023-03-20T10:34:17.941Z,8.30
2023-03-20T10:37:10.042Z,8.40
2023-03-20T10:39:55.323Z,8.40
2023-03-20T10:42:28.312Z,8.50
2023-03-20T10:45:22.890Z,8.60
2023-03-20T10:47:51.935Z,8.60
2023-03-20T10:50:23.607Z,8.70
2023-03-20T10:52:51.769Z,8.80
2023-03-20T10:55:30.925Z,8.90
2023-03-20T10:58:16.233Z,9.00
2023-03-20T11:00:44.006Z,9.10
2023-03-20T11:03:20.628Z,9.20
2023-03-20T11:06:06.476Z,9.20
2023-03-20T11:08:43.383Z,9.30
2023-03-20T11:11:10.636Z,9.40
2023-03-20T11:13:42.648Z,9.50
2023-03-20T11:16:09.716Z,9.60
2023-03-20T11:18:36.888Z,9.70
2023-03-20T11:21:04.350Z,9.80
2023-03-20T11:23:34.928Z,9.90
2023-03-20T11:26:03.940Z,10.00
2023-03-20T11:28:37.851Z,10.00
2023-03-20T11:31:13.840Z,10.00
2023-03-20T11:33:43.969Z,10.10
2023-03-20T11:36:20.541Z,10.00
2023-03-20T11:38:47.862Z,10.00
2023-03-20T11:41:29.030Z,10.10
2023-03-20T11:43:56.019Z,10.10
2023-03-20T11:46:23.938Z,10.10
2023-03-20T11:49:30.371Z,10.20
2023-03-20T11:52:01.620Z,10.20
2023-03-20T11:54:29.398Z,10.30
2023-03-20T11:56:58.636Z,10.30
2023-03-20T11:59:36.248Z,10.30
2023-03-20T12:02:04.951Z,10.30
2023-03-20T12:04:42.860Z,10.40
2023-03-20T12:07:30.249Z,10.50
2023-03-20T12:10:02.930Z,10.50
2023-03-20T12:12:59.436Z,10.50
2023-03-20T12:15:29.461Z,10.50
2023-03-20T12:18:21.349Z,10.50
2023-03-20T12:21:04.734Z,10.50
2023-03-20T12:23:36.476Z,10.50
2023-03-20T12:26:07.572Z,10.60
2023-03-20T12:29:11.446Z,10.60
2023-03-20T12:31:47.867Z,10.50
2023-03-20T12:34:20.311Z,10.60
2023-03-20T12:36:49.202Z,10.60
2023-03-20T12:39:18.501Z,10.60
2023-03-20T12:41:51.870Z,10.70
2023-03-20T12:44:22.067Z,10.70
2023-03-20T12:46:58.103Z,10.70
2023-03-20T12:49:46.505Z,10.70
2023-03-20T12:52:30.970Z,10.70
2023-03-20T12:55:06.885Z,10.70
2023-03-20T12:57:58.942Z,10.70
2023-03-20T13:00:49.641Z,10.80
2023-03-20T13:03:22.365Z,10.80
2023-03-20T13:06:15.915Z,10.90
2023-03-20T13:08:51.807Z,10.90
2023-03-20T13:11:29.713Z,10.90
2023-03-20T13:14:25.818Z,11.00
2023-03-20T13:17:17.227Z,11.00
2023-03-20T13:20:36.290Z,11.10
2023-03-20T13:23:18.280Z,11.00
2023-03-20T13:26:06.764Z,11.10
2023-03-20T13:29:01.579Z,11.20
2023-03-20T13:31:44.069Z,11.20
2023-03-20T13:34:54.367Z,11.30
2023-03-20T13:37:36.011Z,11.20
2023-03-20T13:40:32.767Z,11.20
2023-03-20T13:43:01.138Z,11.20
2023-03-20T13:45:38.087Z,11.30
2023-03-20T13:48:26.706Z,11.20
2023-03-20T13:51:14.363Z,11.20
2023-03-20T13:54:01.726Z,11.20
2023-03-20T13:56:49.239Z,11.30
2023-03-20T13:59:23.170Z,11.30
2023-03-20T14:02:00.829Z,11.30
2023-03-20T14:04:28.364Z,11.40
2023-03-20T14:06:58.098Z,11.40
2023-03-20T14:09:36.458Z,11.50
2023-03-20T14:12:04.477Z,11.60
2023-03-20T14:14:44.328Z,11.60
2023-03-20T14:17:19.864Z,11.60
2023-03-20T14:19:48.051Z,11.60
2023-03-20T14:22:28.162Z,11.60
2023-03-20T14:25:00.686Z,11.60
2023-03-20T14:27:43.301Z,11.60
2023-03-20T14:30:29.597Z,11.60
2023-03-20T14:33:07.225Z,11.60
2023-03-20T14:35:38.798Z,11.60
2023-03-20T14:38:23.992Z,11.60
2023-03-20T14:41:09.082Z,11.60
2023-03-20T14:43:52.004Z,11.60
2023-03-20T14:46:27.114Z,11.60
2023-03-20T14:48:56.030Z,11.60
2023-03-20T14:51:25.194Z,11.50
2023-03-20T14:54:30.439Z,11.60
2023-03-20T14:57:10.214Z,11.50
2023-03-20T14:59:37.176Z,11.60
2023-03-20T15:02:04.668Z,11.70
2023-03-20T15:04:34.933Z,11.70
2023-03-20T15:07:24.379Z,11.70
2023-03-20T15:09:54.361Z,11.70
2023-03-20T15:12:24.843Z,11.70
2023-03-20T15:14:56.142Z,11.70
2023-03-20T15:17:44.372Z,11.70
2023-03-20T15:20:15.680Z,11.80
2023-03-20T15:22:59.426Z,11.90
2023-03-20T15:25:44.728Z,11.80
2023-03-20T15:28:20.023Z,11.80
2023-03-20T15:30:48.682Z,11.80
2023-03-20T15:33:24.873Z,11.80
2023-03-20T15:35:51.930Z,11.80
2023-03-20T15:38:19.848Z,11.80
2023-03-20T15:40:51.492Z,11.80
2023-03-20T15:43:22.166Z,11.80
2023-03-20T15:45:50.738Z,11.80
2023-03-20T15:48:19.563Z,11.80
2023-03-20T15:50:50.591Z,11.80
2023-03-20T15:53:20.356Z,11.80
2023-03-20T15:55:51.827Z,11.70
2023-03-20T15:58:18.975Z,11.70
2023-03-20T16:00:49.858Z,11.70
2023-03-20T16:03:19.978Z,11.70
2023-03-20T16:05:49.306Z,11.70
2023-03-20T16:08:25.766Z,11.70
2023-03-20T16:11:10.278Z,11.80
2023-03-20T16:13:48.602Z,11.80
2023-03-20T16:16:19.160Z,11.70
2023-03-20T16:18:48.083Z,11.80
2023-03-20T16:21:50.398Z,11.80
2023-03-20T16:24:29.744Z,11.80
2023-03-20T16:26:57.583Z,11.80
2023-03-20T16:29:25.831Z,11.80
2023-03-20T16:31:59.620Z,11.80
2023-03-20T16:34:32.412Z,11.80
2023-03-20T16:37:01.867Z,11.80
2023-03-20T16:39:30.749Z,11.80
2023-03-20T16:42:15.026Z,11.80
2023-03-20T16:44:42.362Z,11.70
2023-03-20T16:47:23.494Z,11.70
2023-03-20T16:50:04.099Z,11.80
2023-03-20T16:52:35.967Z,11.70
2023-03-20T16:55:03.202Z,11.70
2023-03-20T16:57:36.512Z,11.70
2023-03-20T17:00:08.386Z,11.70
2023-03-20T17:02:41.180Z,11.70
2023-03-20T17:05:13.066Z,11.70
2023-03-20T17:07:41.843Z,11.70
2023-03-20T17:10:17.923Z,11.60
2023-03-20T17:12:47.564Z,11.60
2023-03-20T17:15:22.439Z,11.50
2023-03-20T17:17:49.656Z,11.50
2023-03-20T17:20:25.742Z,11.50
2023-03-20T17:22:52.865Z,11.50
2023-03-20T17:25:20.599Z,11.60
2023-03-20T17:27:47.429Z,11.50
2023-03-20T17:30:20.305Z,11.60
2023-03-20T17:32:47.303Z,11.50
2023-03-20T17:35:14.256Z,11.50
2023-03-20T17:37:41.613Z,11.50
2023-03-20T17:40:15.403Z,11.50
2023-03-20T17:42:43.396Z,11.50
2023-03-20T17:45:14.200Z,11.40
2023-03-20T17:47:42.356Z,11.40
2023-03-20T17:50:19.728Z,11.40
2023-03-20T17:52:46.594Z,11.40
2023-03-20T17:55:13.500Z,11.40
2023-03-20T17:57:40.363Z,11.40
2023-03-20T18:00:17.537Z,11.30
2023-03-20T18:02:44.605Z,11.30
2023-03-20T18:05:11.605Z,11.30
2023-03-20T18:07:38.523Z,11.30
2023-03-20T18:10:06.218Z,11.30
2023-03-20T18:12:34.535Z,11.30
2023-03-20T18:15:01.553Z,11.30
2023-03-20T18:17:28.446Z,11.30
2023-03-20T18:19:55.309Z,11.30
2023-03-20T18:22:22.149Z,11.30
2023-03-20T18:24:49.021Z,11.30
2023-03-20T18:27:15.895Z,11.30
2023-03-20T18:29:42.805Z,11.30
2023-03-20T18:32:09.682Z,11.30
2023-03-20T18:34:36.522Z,11.30
2023-03-20T18:37:07.517Z,11.20
2023-03-20T18:39:34.479Z,11.20
2023-03-20T18:42:01.510Z,11.20
2023-03-20T18:44:28.522Z,11.20
2023-03-20T18:46:55.489Z,11.20
2023-03-20T18:49:22.319Z,11.20
2023-03-20T18:51:49.184Z,11.20
2023-03-20T18:54:16.509Z,11.20
2023-03-20T18:56:43.425Z,11.10
2023-03-20T18:59:12.540Z,11.10
2023-03-20T19:01:39.467Z,11.10
2023-03-20T19:04:06.548Z,11.10
2023-03-20T19:06:33.697Z,11.10
2023-03-20T19:09:03.764Z,11.00
2023-03-20T19:11:30.568Z,11.10
2023-03-20T19:13:57.425Z,11.00
2023-03-20T19:16:25.764Z,11.00
2023-03-20T19:18:53.995Z,11.00
2023-03-20T19:21:25.993Z,11.00
2023-03-20T19:24:00.724Z,11.00
2023-03-20T19:26:29.223Z,10.90
2023-03-20T19:28:57.887Z,10.90
2023-03-20T19:31:25.287Z,11.00
2023-03-20T19:33:52.426Z,10.90
2023-03-20T19:36:29.498Z,11.00
2023-03-20T19:38:57.308Z,10.90
2023-03-20T19:41:24.336Z,11.00
2023-03-20T19:43:54.086Z,10.90
2023-03-20T19:46:38.736Z,10.90
2023-03-20T19:49:17.899Z,10.90
2023-03-20T19:51:45.365Z,10.90
2023-03-20T19:54:12.219Z,10.90
2023-03-20T19:56:39.070Z,10.90
2023-03-20T19:59:05.992Z,10.80
2023-03-20T20:01:33.106Z,10.80
2023-03-20T20:04:00.133Z,10.80
2023-03-20T20:06:32.191Z,10.80
2023-03-20T20:09:01.174Z,10.80
2023-03-20T20:11:28.295Z,10.80
2023-03-20T20:14:06.632Z,10.80
2023-03-20T20:16:36.221Z,10.80
2023-03-20T20:19:03.708Z,10.80
2023-03-20T20:24:17.548Z,10.70
2023-03-20T20:26:59.919Z,10.70
2023-03-20T20:29:34.126Z,10.70
2023-03-20T20:32:01.292Z,10.70
2023-03-20T20:40:04.803Z,10.60
2023-03-20T20:42:31.636Z,10.60
2023-03-20T20:44:58.410Z,10.60
2023-03-20T20:47:25.261Z,10.60
2023-03-20T20:49:52.155Z,10.50
2023-03-20T20:52:19.042Z,10.50
2023-03-20T20:54:45.864Z,10.60
2023-03-20T20:57:12.921Z,10.50
2023-03-20T20:59:41.264Z,10.50
2023-03-20T21:02:12.657Z,10.50
2023-03-20T21:04:40.790Z,10.50
2023-03-20T21:07:11.188Z,10.50
2023-03-20T21:09:39.107Z,10.50
2023-03-20T21:12:08.090Z,10.50
2023-03-20T21:14:35.703Z,10.40
2023-03-20T21:17:03.637Z,10.50
2023-03-20T21:19:34.129Z,10.50
2023-03-20T21:22:01.271Z,10.50
2023-03-20T21:24:33.948Z,10.40
2023-03-20T21:27:03.442Z,10.40
2023-03-20T21:29:30.773Z,10.40
2023-03-20T21:31:57.909Z,10.40
2023-03-20T21:34:24.830Z,10.40
2023-03-20T21:36:51.978Z,10.40
2023-03-20T21:39:19.375Z,10.40
2023-03-20T21:41:46.757Z,10.40
2023-03-20T21:44:18.058Z,10.30
2023-03-20T21:47:37.962Z,10.30
2023-03-20T22:04:21.927Z,10.30
2023-03-20T22:20:58.866Z,10.30
2023-03-20T22:40:36.061Z,10.20
2023-03-20T22:43:48.678Z,10.10
2023-03-20T22:45:31.696Z,10.10
2023-03-20T22:48:05.891Z,10.10
2023-03-20T22:50:32.655Z,10.10
2023-03-20T22:52:59.444Z,10.10
2023-03-20T22:55:26.339Z,10.10
2023-03-20T22:58:06.429Z,10.10
2023-03-20T23:00:34.607Z,10.00
2023-03-20T23:03:15.248Z,10.00
2023-03-20T23:05:44.359Z,10.00
2023-03-20T23:08:12.073Z,10.00
2023-03-20T23:10:44.064Z,10.00
2023-03-20T23:13:11.432Z,10.00
2023-03-20T23:15:38.776Z,10.00
2023-03-20T23:18:06.060Z,10.00
2023-03-20T23:20:33.106Z,10.00
2023-03-20T23:22:59.979Z,10.00
2023-03-20T23:25:38.326Z,10.00
2023-03-20T23:28:07.122Z,10.00
2023-03-20T23:30:44.210Z,10.00
2023-03-20T23:33:14.869Z,10.00
2023-03-20T23:35:41.764Z,10.00
2023-03-20T23:38:08.723Z,10.00
2023-03-20T23:40:36.034Z,9.90
2023-03-20T23:43:03.215Z,9.90
2023-03-20T23:45:30.008Z,9.90
2023-03-20T23:47:56.860Z,9.90
2023-03-20T23:50:30.319Z,9.90
2023-03-20T23:53:09.814Z,9.90
2023-03-20T23:55:45.830Z,9.90
2023-03-20T23:58:13.056Z,9.90
